Whale Point, California Weather observations

Data are for observation ending at time listed.
 Day   Time    Ave.   Ave.  Ave.  Vector   Max.   Stn.    Total    Solar   Ave.  
  of    of     Air    Rel.  Wind   Wind    Wind   Baro.  Precip.   Rad.    Soil  
Year   Day     Temp.  Hum.  Speed  Dir.    Gust   Pres.                    Temp. 
2014   (PST)    F      %     mph   deg.    mph     mb.     in.     W/m2     F   
------------------------------------------------------------------------------
 330   14:40   74.1    24    3.7   209      6.4   1001.0    0.00     369    59.7
 330   14:50   73.1    27    4.2   208      7.9   1001.0    0.00     343    59.9
 330   15:00   71.4    24    5.1   221      8.6   1001.0    0.00     315    60.0
 330   15:10   72.2    20    4.7   219      7.2   1001.0    0.00     288    60.1
 330   15:20   72.2    21    3.6   222      5.7   1001.0    0.00     259    60.2
 330   15:30  99999.0   99999  99999.0   99999    99999.0   99999.0   99999.00   99999    99999.0
 330   15:40   73.7    19    3.5   213      6.7   1001.0    0.00     202    60.5
 330   15:50   74.7    18    2.6   192      6.6   1001.0    0.00     174    60.6
 330   16:00   73.1    20    1.4     4      2.7   1001.0    0.00     146    60.7
 330   16:10   72.1    20    1.1   330      2.2   1001.0    0.00     119    60.8
 330   16:20   73.7    18    2.6   312      5.3   1001.0    0.00      92    61.0
 330   16:30   73.1    23    1.8   236      5.1   1001.0    0.00      67    61.1
 330   16:40   71.6    23    1.4   195      3.8   1000.7    0.00      43    61.1
 330   16:50   70.3    24    0.6   332      3.0   1000.7    0.00      20    61.2
 330   17:00   68.3    27    1.3    17      2.6   1000.7    0.00       4    61.3
 330   17:10   68.9    27    1.5    47      3.3   1000.3    0.00       1    61.4
 330   17:20   69.5    25    1.2   168      2.8   1000.7    0.00       0    61.5
 330   17:30   67.9    27    0.9    88      2.5   1000.7    0.00       0    61.6
 330   17:40   68.4    26    0.9    13      2.5   1000.7    0.00       0    61.6
 330   17:50   69.1    27    2.1    27      4.7   1000.7    0.00       0    61.7
 330   18:00   68.6    27    0.7   225      2.2   1000.7    0.00       0    61.7
 330   18:10   67.1    29    0.9   160      2.1   1000.7    0.00       0    61.7
 330   18:20   66.8    26    1.6   100      2.9   1000.7    0.00       0    61.8
 330   18:30   66.6    27    1.2    95      2.8   1000.7    0.00       0    61.8
 330   18:40   66.8    24    1.8    78      6.1   1000.7    0.00       0    61.8
 330   18:50   66.9    22    1.8   100      4.2   1000.7    0.00       0    61.8
 330   19:00   67.0    25    1.4   108      4.2   1000.7    0.00       0    61.8
 330   19:10   67.6    26    4.6    59      7.5   1000.7    0.00       0    61.8
 330   19:20   68.9    24    6.1    58      8.5   1000.7    0.00       0    61.8
 330   19:30   69.7    23    5.6    62      7.7   1000.7    0.00       0    61.8
 330   19:40   70.4    22    4.4    56      8.3   1000.7    0.00       0    61.8
 330   19:50   71.1    20    3.1    76      7.7   1001.0    0.00       0    61.8
 330   20:00   71.7    20    7.5    76     11.7   1000.7    0.00       0    61.8
 330   20:10   71.6    20    8.2    61     11.4   1000.7    0.00       0    61.8
 330   20:20   71.3    20    5.3    50      7.9   1000.7    0.00       0    61.8
 330   20:30   71.1    20    2.9    60      7.1   1000.7    0.00       0    61.7
 330   20:40   67.6    25    1.6    21      3.7   1000.7    0.00       0    61.7
 330   20:50   66.1    26    0.7    45      2.4   1001.0    0.00       0    61.7
 330   21:00   65.9    26    1.6    33      4.5   1001.0    0.00       0    61.7
 330   21:10   69.5    21    5.0    46      8.1   1001.0    0.00       0    61.7
 330   21:20   71.9    18    8.0    48     10.0   1001.0    0.00       0    61.6
 330   21:30   72.2    18    7.8    61     10.2   1001.0    0.00       0    61.6
 330   21:40   71.9    18    8.3    62     11.0   1001.0    0.00       0    61.5
 330   21:50   71.7    18    5.9    63      9.0   1001.0    0.00       0    61.5
 330   22:00   71.7    18    3.8    52      6.5   1001.0    0.00       0    61.5
 330   22:10   71.2    19    1.9    97      5.7   1001.0    0.00       0    61.4
 330   22:20   67.1    34    2.5   172      4.7   1001.0    0.00       0    61.4
 330   22:30   60.3    64    2.5   155      5.1   1001.0    0.00       0    61.4
 330   22:40   62.3    38    4.3    24      9.0   1000.7    0.00       0    61.4
 330   22:50   68.4    22    6.6    42      8.7   1000.7    0.00       0    61.4
 330   23:00   70.0    20    5.3    48      6.9   1000.7    0.00       0    61.3
 330   23:10   70.1    19    4.7    52      7.5   1000.7    0.00       0    61.2
 330   23:20   69.9    20    2.6    69      6.1   1000.7    0.00       0    61.2
 330   23:30   69.5    20    1.2    74      2.9   1000.7    0.00       0    61.2
 330   23:40   69.1    20    1.9    61      7.4   1000.7    0.00       0    61.2
 330   23:50   70.1    19    7.0    54     10.1   1000.3    0.00       0    61.1
 331    0:00   70.6    18    6.4    59      9.8   1000.3    0.00       0    61.1
 331    0:10   70.6    18    3.1    75      7.7   1000.3    0.00       0    61.0
 331    0:20   69.6    20    1.4   121      3.7   1000.3    0.00       0    61.0
 331    0:30   69.5    20    0.9   175      2.9   1000.0    0.00       0    61.0
 331    0:40   68.1    22    0.7   136      2.0   1000.0    0.00       0    60.9
 331    0:50   67.9    22    1.0   110      2.1   999.7    0.00       0    60.9
 331    1:00   66.7    23    0.8    24      2.8   999.7    0.00       0    60.9
 331    1:10   67.8    21    1.2    55      2.4   999.7    0.00       0    60.9
 331    1:20   70.0    19    1.4   110      3.5   999.7    0.00       0    60.8
 331    1:30   69.2    20    0.5   261      1.8   999.7    0.00       0    60.8
 331    1:40   67.6    23    1.0   212      2.3   999.7    0.00       0    60.7
 331    1:50   64.1    29    1.7    42      3.0   999.7    0.00       0    60.7
 331    2:00   66.3    23    1.2    62      4.4   999.7    0.00       0    60.7
 331    2:10   69.3    20    2.4    95      5.3   999.7    0.00       0    60.6
 331    2:20   69.3    20    1.5   126      4.2   999.3    0.00       0    60.6
 331    2:30   68.6    20    0.3   351      2.3   999.3    0.00       0    60.6
 331    2:40   67.4    22    0.2   310      0.9   999.3    0.00       0    60.5
 331    2:50   66.2    24    0.8   118      1.7   999.3    0.00       0    60.5
 331    3:00   67.0    23    4.8    39      8.2   999.3    0.00       0    60.5
 331    3:10   68.6    21    5.6    31      7.4   999.3    0.00       0    60.4
 331    3:20   67.9    22    2.9    61      5.6   999.0    0.00       0    60.4
 331    3:30   67.4    23    1.8   246      3.7   999.0    0.00       0    60.3
 331    3:40   66.6    23    1.0    18      2.0   999.3    0.00       0    60.3
 331    3:50   66.3    24    1.2    28      2.7   999.0    0.00       0    60.3
 331    4:00   66.4    23    2.0    41      4.2   999.0    0.00       0    60.2
 331    4:10   68.3    21    2.9    67      4.9   999.0    0.00       0    60.2
 331    4:20   68.3    21    1.3   131      2.6   999.0    0.00       0    60.1
 331    4:30   68.3    21    0.6    41      1.2   999.0    0.00       0    60.1
 331    4:40   69.0    20    2.4    59      6.0   999.0    0.00       0    60.0
 331    4:50   68.3    21    3.6    46      5.9   999.0    0.00       0    60.0
 331    5:00   68.1    21    4.8    45      6.2   999.0    0.00       0    60.0
 331    5:10   67.5    22    2.9    49      6.7   999.0    0.00       0    59.9
 331    5:20   67.5    22    6.4    28      8.0   999.0    0.00       0    59.9
 331    5:30   67.2    22    4.6    50      7.8   999.0    0.00       0    59.8
 331    5:40   68.6    21    5.9    63      8.3   998.6    0.00       0    59.8
 331    5:50   69.0    20    3.9    70      9.0   999.0    0.00       0    59.8
 331    6:00   66.8    25    1.1    48      3.0   999.0    0.00       0    59.7
 331    6:10   65.3    25    2.6    56      7.5   999.0    0.00       0    59.7
 331    6:20   68.4    21    3.9    56      7.2   999.0    0.00       0    59.7
 331    6:30   68.7    21    3.2    42      5.5   999.0    0.00       0    59.6
 331    6:40   68.0    22    1.9    50      5.7   999.0    0.00       0    59.6
 331    6:50   68.2    22    2.0    63      4.2   999.0    0.00       4    59.6
 331    7:00   64.7    29    1.8    58      3.7   999.0    0.00       4    59.5
 331    7:10   64.8    29    2.2    74      6.2   999.0    0.00       8    59.5
 331    7:20   69.8    19    2.9    72      5.8   999.0    0.00      10    59.5
 331    7:30   70.5    19    1.5   116      3.7   999.0    0.00      15    59.4
 331    7:40   68.7    22    0.9   186      2.0   999.0    0.00      16    59.4
 331    7:50   67.7    22    1.1   196      3.1   999.0    0.00      24    59.3
 331    8:00   67.7    22    0.6   183      1.8   999.3    0.00      37    59.3
 331    8:10   67.9    22    0.3    62      1.2   999.3    0.00      49    59.3
 331    8:20   68.4    22    0.1   346      1.5   999.3    0.00      58    59.3
 331    8:30   68.8    22    1.7   350      2.9   999.3    0.00      89    59.2
 331    8:40   69.4    23    0.9   171      1.9   999.3    0.00     184    59.2
 331    8:50   71.4    22    1.3   146      2.7   999.3    0.00     309    59.1
 331    9:00   71.5    23    1.4   151      2.6   999.3    0.00     331    59.1
 331    9:10   69.4    30    1.7   196      3.5   999.3    0.00     379    59.1
 331    9:20   66.6    42    1.2   168      3.1   999.3    0.00     403    59.0
 331    9:30   66.7    38    1.7    10      2.6   999.3    0.00     370    59.0
 331    9:40   65.0    40    1.5    21      2.3   999.3    0.00     391    59.0
 331    9:50   67.0    44    0.7   221      1.8   999.3    0.00     378    59.0
 331   10:00   67.9    47    0.2   208      1.0   999.3    0.00     483    59.0
 331   10:10   68.0    53    1.1   197      2.5   999.3    0.00     504    58.9
 331   10:20   68.5    51    0.0   340      0.7   999.3    0.00     509    58.9
 331   10:30   69.4    51    1.0   226      2.1   999.3    0.00     537    58.9
 331   10:40   67.7    55    2.3   206      3.7   999.0    0.00     549    58.9
 331   10:50   68.3    43    3.2   198      4.4   999.0    0.00     561    58.9
 331   11:00   69.2    31    3.7   207      5.1   999.0    0.00     573    58.9
 331   11:10   69.6    32    4.0   204      6.1   999.0    0.00     585    59.0
 331   11:20   68.7    36    3.5   193      6.0   999.0    0.00     591    59.0
 331   11:30   69.5    29    3.3   200      6.1   998.6    0.00     596    59.0
 331   11:40   69.3    28    2.5   215      4.5   998.6    0.00     599    59.1
 331   11:50   69.3    36    3.5   218      5.1   998.3    0.00     600    59.1
 331   12:00   68.5    49    3.4   208      5.3   998.3    0.00     600    59.2
 331   12:10   69.3    40    3.0   216      4.7   998.0    0.00     601    59.2
 331   12:20   70.0    38    2.7   214      5.0   998.0    0.00     597    59.3
 331   12:30   71.3    29    2.9   221      4.6   998.0    0.00     592    59.3
 331   12:40   70.6    48    2.4   213      3.9   997.6    0.00     586    59.4
 331   12:50   67.3    61    3.5   201      5.4   997.6    0.00     577    59.4
 331   13:00   66.1    64    4.6   192      7.3   997.6    0.00     566    59.5
 331   13:10   67.2    56    3.9   208      6.8   997.3    0.00     555    59.6
 331   13:20   68.2    48    3.0   205      5.2   997.3    0.00     541    59.6
 331   13:30   68.8    47    3.6   216      4.9   997.3    0.00     527    59.7
 331   13:40   69.2    46    2.8   230      4.6   997.0    0.00     509    59.8
 331   13:50   70.0    45    3.6   220      5.5   997.0    0.00     491    59.9
 331   14:00   70.1    44    3.3   222      5.3   997.0    0.00     471    60.0
 331   14:10   70.5    46    2.8   219      5.1   997.0    0.00     450    60.1
 331   14:20   71.4    46    1.3   206      2.9   997.0    0.00     427    60.2
 331   14:30   71.4    50    1.7   211      3.7   997.0    0.00     403    60.3

Return to Whale Point graphs page.


Western Regional Climate Center,wrcc@dri.edu